sensor_id;sensor_type;location;lat;lon;timestamp;P1;durP1;ratioP1;P2;durP2;ratioP2
4353;SDS011;11018;51.258;6.806;2023-12-04T00:01:47;30.20;;;21.20;;
4353;SDS011;11018;51.258;6.806;2023-12-04T00:04:12;31.60;;;22.30;;
4353;SDS011;11018;51.258;6.806;2023-12-04T00:06:38;31.70;;;22.35;;
4353;SDS011;11018;51.258;6.806;2023-12-04T00:09:04;30.70;;;21.40;;
4353;SDS011;11018;51.258;6.806;2023-12-04T00:11:29;31.17;;;21.30;;
4353;SDS011;11018;51.258;6.806;2023-12-04T00:13:55;29.90;;;20.90;;
4353;SDS011;11018;51.258;6.806;2023-12-04T00:16:20;31.33;;;21.23;;
4353;SDS011;11018;51.258;6.806;2023-12-04T00:18:46;29.73;;;20.67;;
4353;SDS011;11018;51.258;6.806;2023-12-04T00:21:12;29.57;;;20.53;;
4353;SDS011;11018;51.258;6.806;2023-12-04T00:23:38;29.63;;;20.77;;
4353;SDS011;11018;51.258;6.806;2023-12-04T00:26:03;29.13;;;20.77;;
4353;SDS011;11018;51.258;6.806;2023-12-04T00:28:29;29.15;;;20.15;;
4353;SDS011;11018;51.258;6.806;2023-12-04T00:30:56;27.43;;;19.13;;
4353;SDS011;11018;51.258;6.806;2023-12-04T00:33:22;27.42;;;19.30;;
4353;SDS011;11018;51.258;6.806;2023-12-04T00:35:47;27.73;;;18.95;;
4353;SDS011;11018;51.258;6.806;2023-12-04T00:38:13;28.55;;;19.92;;
4353;SDS011;11018;51.258;6.806;2023-12-04T00:40:38;28.15;;;19.73;;
4353;SDS011;11018;51.258;6.806;2023-12-04T00:43:04;29.37;;;20.10;;
4353;SDS011;11018;51.258;6.806;2023-12-04T00:45:29;26.63;;;18.60;;
4353;SDS011;11018;51.258;6.806;2023-12-04T00:47:55;27.00;;;18.80;;
4353;SDS011;11018;51.258;6.806;2023-12-04T00:50:20;26.70;;;19.47;;
4353;SDS011;11018;51.258;6.806;2023-12-04T00:52:46;27.50;;;19.20;;
4353;SDS011;11018;51.258;6.806;2023-12-04T00:55:11;25.55;;;17.92;;
4353;SDS011;11018;51.258;6.806;2023-12-04T00:57:37;24.65;;;17.95;;
4353;SDS011;11018;51.258;6.806;2023-12-04T01:00:03;27.27;;;19.90;;
4353;SDS011;11018;51.258;6.806;2023-12-04T01:02:29;30.05;;;19.77;;
4353;SDS011;11018;51.258;6.806;2023-12-04T01:04:55;27.42;;;19.30;;
4353;SDS011;11018;51.258;6.806;2023-12-04T01:07:20;27.63;;;18.00;;
4353;SDS011;11018;51.258;6.806;2023-12-04T01:09:46;22.45;;;17.17;;
4353;SDS011;11018;51.258;6.806;2023-12-04T01:12:11;25.30;;;18.75;;
4353;SDS011;11018;51.258;6.806;2023-12-04T01:14:37;25.83;;;18.45;;
4353;SDS011;11018;51.258;6.806;2023-12-04T01:17:05;25.27;;;18.02;;
4353;SDS011;11018;51.258;6.806;2023-12-04T01:19:31;24.05;;;17.85;;
4353;SDS011;11018;51.258;6.806;2023-12-04T01:21:57;21.95;;;16.70;;
4353;SDS011;11018;51.258;6.806;2023-12-04T01:24:22;23.48;;;17.30;;
4353;SDS011;11018;51.258;6.806;2023-12-04T01:26:48;22.17;;;16.52;;
4353;SDS011;11018;51.258;6.806;2023-12-04T01:29:13;24.37;;;16.77;;
4353;SDS011;11018;51.258;6.806;2023-12-04T01:31:39;24.03;;;17.30;;
4353;SDS011;11018;51.258;6.806;2023-12-04T01:34:05;23.97;;;16.47;;
4353;SDS011;11018;51.258;6.806;2023-12-04T01:36:30;23.40;;;17.17;;
4353;SDS011;11018;51.258;6.806;2023-12-04T01:38:56;25.47;;;18.30;;
4353;SDS011;11018;51.258;6.806;2023-12-04T01:41:21;25.42;;;17.58;;
4353;SDS011;11018;51.258;6.806;2023-12-04T01:43:47;21.33;;;16.63;;
4353;SDS011;11018;51.258;6.806;2023-12-04T01:46:13;23.08;;;16.55;;
4353;SDS011;11018;51.258;6.806;2023-12-04T01:48:41;22.80;;;16.38;;
4353;SDS011;11018;51.258;6.806;2023-12-04T01:51:07;21.23;;;16.00;;
4353;SDS011;11018;51.258;6.806;2023-12-04T01:53:35;22.33;;;16.80;;
4353;SDS011;11018;51.258;6.806;2023-12-04T01:56:03;21.98;;;16.10;;
4353;SDS011;11018;51.258;6.806;2023-12-04T01:58:29;22.50;;;16.57;;
4353;SDS011;11018;51.258;6.806;2023-12-04T02:00:55;22.88;;;16.50;;
4353;SDS011;11018;51.258;6.806;2023-12-04T02:03:20;22.58;;;16.42;;
4353;SDS011;11018;51.258;6.806;2023-12-04T02:05:46;20.65;;;16.05;;
4353;SDS011;11018;51.258;6.806;2023-12-04T02:08:12;21.60;;;15.88;;
4353;SDS011;11018;51.258;6.806;2023-12-04T02:10:38;21.23;;;15.80;;
4353;SDS011;11018;51.258;6.806;2023-12-04T02:13:04;20.05;;;15.68;;
4353;SDS011;11018;51.258;6.806;2023-12-04T02:15:30;19.17;;;14.87;;
4353;SDS011;11018;51.258;6.806;2023-12-04T02:17:55;18.43;;;14.43;;
4353;SDS011;11018;51.258;6.806;2023-12-04T02:20:24;18.95;;;14.15;;
4353;SDS011;11018;51.258;6.806;2023-12-04T02:22:56;19.92;;;15.25;;
4353;SDS011;11018;51.258;6.806;2023-12-04T02:25:21;20.87;;;15.37;;
4353;SDS011;11018;51.258;6.806;2023-12-04T02:27:49;21.60;;;15.77;;
4353;SDS011;11018;51.258;6.806;2023-12-04T02:30:17;20.67;;;15.20;;
4353;SDS011;11018;51.258;6.806;2023-12-04T02:32:45;20.33;;;14.60;;
4353;SDS011;11018;51.258;6.806;2023-12-04T02:35:12;20.73;;;14.80;;
4353;SDS011;11018;51.258;6.806;2023-12-04T02:37:40;19.98;;;14.65;;
4353;SDS011;11018;51.258;6.806;2023-12-04T02:40:07;19.05;;;14.40;;
4353;SDS011;11018;51.258;6.806;2023-12-04T02:42:33;18.80;;;14.93;;
4353;SDS011;11018;51.258;6.806;2023-12-04T02:44:58;20.73;;;15.20;;
4353;SDS011;11018;51.258;6.806;2023-12-04T02:47:24;20.08;;;14.70;;
4353;SDS011;11018;51.258;6.806;2023-12-04T02:49:50;20.03;;;14.77;;
4353;SDS011;11018;51.258;6.806;2023-12-04T02:52:16;22.35;;;15.80;;
4353;SDS011;11018;51.258;6.806;2023-12-04T02:54:41;20.17;;;14.45;;
4353;SDS011;11018;51.258;6.806;2023-12-04T02:57:07;18.77;;;14.15;;
4353;SDS011;11018;51.258;6.806;2023-12-04T02:59:32;20.38;;;15.30;;
4353;SDS011;11018;51.258;6.806;2023-12-04T03:01:58;17.80;;;14.40;;
4353;SDS011;11018;51.258;6.806;2023-12-04T03:04:23;18.20;;;14.20;;
4353;SDS011;11018;51.258;6.806;2023-12-04T03:06:49;20.33;;;15.00;;
4353;SDS011;11018;51.258;6.806;2023-12-04T03:09:15;20.13;;;15.07;;
4353;SDS011;11018;51.258;6.806;2023-12-04T03:11:40;18.60;;;14.00;;
4353;SDS011;11018;51.258;6.806;2023-12-04T03:14:06;19.33;;;14.90;;
4353;SDS011;11018;51.258;6.806;2023-12-04T03:16:32;17.40;;;13.52;;
4353;SDS011;11018;51.258;6.806;2023-12-04T03:18:58;19.03;;;13.70;;
4353;SDS011;11018;51.258;6.806;2023-12-04T03:21:24;18.17;;;13.63;;
4353;SDS011;11018;51.258;6.806;2023-12-04T03:23:49;19.55;;;13.90;;
4353;SDS011;11018;51.258;6.806;2023-12-04T03:26:15;19.00;;;13.73;;
4353;SDS011;11018;51.258;6.806;2023-12-04T03:28:40;17.47;;;12.97;;
4353;SDS011;11018;51.258;6.806;2023-12-04T03:31:06;17.40;;;13.60;;
4353;SDS011;11018;51.258;6.806;2023-12-04T03:33:32;17.92;;;13.88;;
4353;SDS011;11018;51.258;6.806;2023-12-04T03:36:01;17.50;;;13.85;;
4353;SDS011;11018;51.258;6.806;2023-12-04T03:38:27;19.08;;;13.80;;
4353;SDS011;11018;51.258;6.806;2023-12-04T03:40:52;18.00;;;13.60;;
4353;SDS011;11018;51.258;6.806;2023-12-04T03:43:18;19.30;;;12.73;;
4353;SDS011;11018;51.258;6.806;2023-12-04T03:45:43;17.48;;;12.40;;
4353;SDS011;11018;51.258;6.806;2023-12-04T03:48:09;19.13;;;13.10;;
4353;SDS011;11018;51.258;6.806;2023-12-04T03:50:35;17.77;;;12.97;;
4353;SDS011;11018;51.258;6.806;2023-12-04T03:53:00;16.27;;;12.60;;
4353;SDS011;11018;51.258;6.806;2023-12-04T03:55:26;16.17;;;12.80;;
4353;SDS011;11018;51.258;6.806;2023-12-04T03:57:52;17.70;;;13.03;;
4353;SDS011;11018;51.258;6.806;2023-12-04T04:00:18;17.70;;;12.67;;
4353;SDS011;11018;51.258;6.806;2023-12-04T04:02:44;17.15;;;12.95;;
4353;SDS011;11018;51.258;6.806;2023-12-04T04:05:09;17.70;;;13.00;;
4353;SDS011;11018;51.258;6.806;2023-12-04T04:07:35;16.13;;;12.00;;
4353;SDS011;11018;51.258;6.806;2023-12-04T04:10:00;15.65;;;12.10;;
4353;SDS011;11018;51.258;6.806;2023-12-04T04:12:27;16.55;;;12.55;;
4353;SDS011;11018;51.258;6.806;2023-12-04T04:14:53;18.45;;;12.85;;
4353;SDS011;11018;51.258;6.806;2023-12-04T04:17:18;17.10;;;11.77;;
4353;SDS011;11018;51.258;6.806;2023-12-04T04:19:44;16.13;;;11.70;;
4353;SDS011;11018;51.258;6.806;2023-12-04T04:22:09;14.53;;;11.80;;
4353;SDS011;11018;51.258;6.806;2023-12-04T04:24:35;14.68;;;11.60;;
4353;SDS011;11018;51.258;6.806;2023-12-04T04:27:01;17.00;;;11.70;;
4353;SDS011;11018;51.258;6.806;2023-12-04T04:29:26;16.70;;;12.23;;
4353;SDS011;11018;51.258;6.806;2023-12-04T04:31:52;16.40;;;11.80;;
4353;SDS011;11018;51.258;6.806;2023-12-04T04:34:19;15.90;;;11.63;;
4353;SDS011;11018;51.258;6.806;2023-12-04T04:36:46;16.30;;;11.85;;
4353;SDS011;11018;51.258;6.806;2023-12-04T04:39:12;15.30;;;11.23;;
4353;SDS011;11018;51.258;6.806;2023-12-04T04:41:38;14.70;;;11.80;;
4353;SDS011;11018;51.258;6.806;2023-12-04T04:44:04;17.57;;;12.20;;
4353;SDS011;11018;51.258;6.806;2023-12-04T04:46:30;15.00;;;11.93;;
4353;SDS011;11018;51.258;6.806;2023-12-04T04:48:56;14.10;;;11.60;;
4353;SDS011;11018;51.258;6.806;2023-12-04T04:51:22;14.97;;;11.93;;
4353;SDS011;11018;51.258;6.806;2023-12-04T04:53:47;16.53;;;12.63;;
4353;SDS011;11018;51.258;6.806;2023-12-04T04:56:13;16.85;;;12.13;;
4353;SDS011;11018;51.258;6.806;2023-12-04T04:58:39;14.68;;;11.77;;
4353;SDS011;11018;51.258;6.806;2023-12-04T05:01:05;16.35;;;12.38;;
4353;SDS011;11018;51.258;6.806;2023-12-04T05:03:31;16.30;;;12.00;;
4353;SDS011;11018;51.258;6.806;2023-12-04T05:05:56;15.60;;;12.23;;
4353;SDS011;11018;51.258;6.806;2023-12-04T05:08:22;15.27;;;11.98;;
4353;SDS011;11018;51.258;6.806;2023-12-04T05:10:47;16.33;;;12.43;;
4353;SDS011;11018;51.258;6.806;2023-12-04T05:13:13;16.05;;;12.43;;
4353;SDS011;11018;51.258;6.806;2023-12-04T05:15:39;17.90;;;13.27;;
4353;SDS011;11018;51.258;6.806;2023-12-04T05:18:04;15.80;;;12.63;;
4353;SDS011;11018;51.258;6.806;2023-12-04T05:20:30;17.73;;;13.43;;
4353;SDS011;11018;51.258;6.806;2023-12-04T05:22:56;17.83;;;13.00;;
4353;SDS011;11018;51.258;6.806;2023-12-04T05:25:22;17.90;;;13.43;;
4353;SDS011;11018;51.258;6.806;2023-12-04T05:27:47;17.00;;;13.13;;
4353;SDS011;11018;51.258;6.806;2023-12-04T05:30:13;18.35;;;13.40;;
4353;SDS011;11018;51.258;6.806;2023-12-04T05:32:39;17.55;;;13.07;;
4353;SDS011;11018;51.258;6.806;2023-12-04T05:35:05;18.08;;;13.70;;
4353;SDS011;11018;51.258;6.806;2023-12-04T05:37:31;18.70;;;13.70;;
4353;SDS011;11018;51.258;6.806;2023-12-04T05:39:57;20.55;;;14.65;;
4353;SDS011;11018;51.258;6.806;2023-12-04T05:42:22;19.80;;;14.68;;
4353;SDS011;11018;51.258;6.806;2023-12-04T05:44:48;19.03;;;14.47;;
4353;SDS011;11018;51.258;6.806;2023-12-04T05:47:14;19.50;;;14.40;;
4353;SDS011;11018;51.258;6.806;2023-12-04T05:49:40;19.10;;;14.10;;
4353;SDS011;11018;51.258;6.806;2023-12-04T05:52:05;19.30;;;14.50;;
4353;SDS011;11018;51.258;6.806;2023-12-04T05:54:31;19.00;;;14.70;;
4353;SDS011;11018;51.258;6.806;2023-12-04T05:59:32;19.27;;;14.75;;
4353;SDS011;11018;51.258;6.806;2023-12-04T06:01:58;18.10;;;13.63;;
4353;SDS011;11018;51.258;6.806;2023-12-04T06:04:24;19.33;;;14.55;;
4353;SDS011;11018;51.258;6.806;2023-12-04T06:06:50;22.60;;;15.25;;
4353;SDS011;11018;51.258;6.806;2023-12-04T06:09:16;18.40;;;14.20;;
4353;SDS011;11018;51.258;6.806;2023-12-04T06:11:41;20.08;;;14.85;;
4353;SDS011;11018;51.258;6.806;2023-12-04T06:14:07;18.07;;;14.30;;
4353;SDS011;11018;51.258;6.806;2023-12-04T06:16:33;19.80;;;14.90;;
4353;SDS011;11018;51.258;6.806;2023-12-04T06:18:58;20.53;;;15.63;;
4353;SDS011;11018;51.258;6.806;2023-12-04T06:21:24;24.63;;;17.40;;
4353;SDS011;11018;51.258;6.806;2023-12-04T06:23:49;24.02;;;16.95;;
4353;SDS011;11018;51.258;6.806;2023-12-04T06:26:15;22.15;;;17.10;;
4353;SDS011;11018;51.258;6.806;2023-12-04T06:28:42;24.70;;;17.40;;
4353;SDS011;11018;51.258;6.806;2023-12-04T06:31:08;21.17;;;15.77;;
4353;SDS011;11018;51.258;6.806;2023-12-04T06:33:34;22.35;;;16.58;;
4353;SDS011;11018;51.258;6.806;2023-12-04T06:36:01;24.35;;;17.38;;
4353;SDS011;11018;51.258;6.806;2023-12-04T06:38:27;22.77;;;17.13;;
4353;SDS011;11018;51.258;6.806;2023-12-04T06:40:56;23.25;;;16.83;;
4353;SDS011;11018;51.258;6.806;2023-12-04T06:43:22;22.80;;;15.77;;
4353;SDS011;11018;51.258;6.806;2023-12-04T06:45:48;20.73;;;16.20;;
4353;SDS011;11018;51.258;6.806;2023-12-04T06:48:14;23.27;;;16.90;;
4353;SDS011;11018;51.258;6.806;2023-12-04T06:50:40;25.70;;;19.05;;
4353;SDS011;11018;51.258;6.806;2023-12-04T06:53:06;27.73;;;21.13;;
4353;SDS011;11018;51.258;6.806;2023-12-04T06:55:31;24.67;;;18.03;;
4353;SDS011;11018;51.258;6.806;2023-12-04T06:57:57;23.37;;;16.73;;
4353;SDS011;11018;51.258;6.806;2023-12-04T07:00:23;22.08;;;15.70;;
4353;SDS011;11018;51.258;6.806;2023-12-04T07:02:49;22.40;;;17.23;;
4353;SDS011;11018;51.258;6.806;2023-12-04T07:05:15;22.40;;;16.80;;
4353;SDS011;11018;51.258;6.806;2023-12-04T07:07:41;22.80;;;16.80;;
4353;SDS011;11018;51.258;6.806;2023-12-04T07:10:07;20.27;;;15.10;;
4353;SDS011;11018;51.258;6.806;2023-12-04T07:12:33;19.70;;;15.32;;
4353;SDS011;11018;51.258;6.806;2023-12-04T07:14:58;21.90;;;15.93;;
4353;SDS011;11018;51.258;6.806;2023-12-04T07:17:24;21.58;;;16.17;;
4353;SDS011;11018;51.258;6.806;2023-12-04T07:19:50;19.93;;;14.70;;
4353;SDS011;11018;51.258;6.806;2023-12-04T07:22:15;21.53;;;14.80;;
4353;SDS011;11018;51.258;6.806;2023-12-04T07:24:41;21.20;;;15.83;;
4353;SDS011;11018;51.258;6.806;2023-12-04T07:27:06;20.87;;;14.77;;
4353;SDS011;11018;51.258;6.806;2023-12-04T07:29:32;20.75;;;15.35;;
4353;SDS011;11018;51.258;6.806;2023-12-04T07:31:57;18.63;;;14.10;;
4353;SDS011;11018;51.258;6.806;2023-12-04T07:34:23;18.75;;;14.20;;
4353;SDS011;11018;51.258;6.806;2023-12-04T07:36:49;18.80;;;14.47;;
4353;SDS011;11018;51.258;6.806;2023-12-04T07:39:15;18.70;;;14.00;;
4353;SDS011;11018;51.258;6.806;2023-12-04T07:41:41;19.33;;;14.73;;
4353;SDS011;11018;51.258;6.806;2023-12-04T07:44:07;18.50;;;14.10;;
4353;SDS011;11018;51.258;6.806;2023-12-04T07:46:33;19.13;;;14.90;;
4353;SDS011;11018;51.258;6.806;2023-12-04T07:48:59;17.65;;;13.88;;
4353;SDS011;11018;51.258;6.806;2023-12-04T07:51:24;20.25;;;14.93;;
4353;SDS011;11018;51.258;6.806;2023-12-04T07:53:50;18.10;;;14.20;;
4353;SDS011;11018;51.258;6.806;2023-12-04T07:56:16;19.43;;;14.13;;
4353;SDS011;11018;51.258;6.806;2023-12-04T07:58:55;19.10;;;13.27;;
4353;SDS011;11018;51.258;6.806;2023-12-04T08:01:22;17.92;;;13.75;;
4353;SDS011;11018;51.258;6.806;2023-12-04T08:03:49;17.33;;;13.07;;
4353;SDS011;11018;51.258;6.806;2023-12-04T08:06:14;20.13;;;14.30;;
4353;SDS011;11018;51.258;6.806;2023-12-04T08:08:43;18.27;;;13.90;;
4353;SDS011;11018;51.258;6.806;2023-12-04T08:11:09;17.57;;;12.33;;
4353;SDS011;11018;51.258;6.806;2023-12-04T08:13:35;17.67;;;13.63;;
4353;SDS011;11018;51.258;6.806;2023-12-04T08:16:00;18.52;;;13.25;;
4353;SDS011;11018;51.258;6.806;2023-12-04T08:18:26;18.10;;;12.40;;
4353;SDS011;11018;51.258;6.806;2023-12-04T08:20:52;15.50;;;11.60;;
4353;SDS011;11018;51.258;6.806;2023-12-04T08:23:17;16.63;;;12.30;;
4353;SDS011;11018;51.258;6.806;2023-12-04T08:25:43;16.30;;;12.50;;
4353;SDS011;11018;51.258;6.806;2023-12-04T08:28:09;16.02;;;11.55;;
4353;SDS011;11018;51.258;6.806;2023-12-04T08:30:35;16.00;;;11.95;;
4353;SDS011;11018;51.258;6.806;2023-12-04T08:33:00;15.98;;;11.57;;
4353;SDS011;11018;51.258;6.806;2023-12-04T08:35:26;18.35;;;12.32;;
4353;SDS011;11018;51.258;6.806;2023-12-04T08:37:51;16.47;;;11.80;;
4353;SDS011;11018;51.258;6.806;2023-12-04T08:40:17;16.40;;;12.20;;
4353;SDS011;11018;51.258;6.806;2023-12-04T08:42:42;15.77;;;11.67;;
4353;SDS011;11018;51.258;6.806;2023-12-04T08:45:09;14.27;;;11.15;;
4353;SDS011;11018;51.258;6.806;2023-12-04T08:47:35;14.33;;;10.97;;
4353;SDS011;11018;51.258;6.806;2023-12-04T08:50:00;14.43;;;11.07;;
4353;SDS011;11018;51.258;6.806;2023-12-04T08:52:26;15.65;;;11.10;;
4353;SDS011;11018;51.258;6.806;2023-12-04T08:54:52;13.50;;;10.57;;
4353;SDS011;11018;51.258;6.806;2023-12-04T08:57:19;14.80;;;10.30;;
4353;SDS011;11018;51.258;6.806;2023-12-04T08:59:44;14.63;;;10.55;;
4353;SDS011;11018;51.258;6.806;2023-12-04T09:02:10;14.05;;;10.32;;
4353;SDS011;11018;51.258;6.806;2023-12-04T09:04:35;12.25;;;9.75;;
4353;SDS011;11018;51.258;6.806;2023-12-04T09:07:02;16.23;;;10.50;;
4353;SDS011;11018;51.258;6.806;2023-12-04T09:09:28;14.67;;;10.73;;
4353;SDS011;11018;51.258;6.806;2023-12-04T09:11:53;12.20;;;9.70;;
4353;SDS011;11018;51.258;6.806;2023-12-04T09:14:19;14.05;;;10.10;;
4353;SDS011;11018;51.258;6.806;2023-12-04T09:16:44;14.95;;;9.93;;
4353;SDS011;11018;51.258;6.806;2023-12-04T09:19:10;12.32;;;9.63;;
4353;SDS011;11018;51.258;6.806;2023-12-04T09:21:36;12.82;;;9.48;;
4353;SDS011;11018;51.258;6.806;2023-12-04T09:24:01;12.55;;;10.07;;
4353;SDS011;11018;51.258;6.806;2023-12-04T09:26:27;15.50;;;10.70;;
4353;SDS011;11018;51.258;6.806;2023-12-04T09:28:52;12.10;;;9.40;;
4353;SDS011;11018;51.258;6.806;2023-12-04T09:31:18;14.90;;;9.93;;
4353;SDS011;11018;51.258;6.806;2023-12-04T09:33:44;14.93;;;10.00;;
4353;SDS011;11018;51.258;6.806;2023-12-04T09:36:10;13.10;;;9.70;;
4353;SDS011;11018;51.258;6.806;2023-12-04T09:38:35;12.47;;;9.70;;
4353;SDS011;11018;51.258;6.806;2023-12-04T09:41:01;12.93;;;9.70;;
4353;SDS011;11018;51.258;6.806;2023-12-04T09:43:30;13.60;;;9.38;;
4353;SDS011;11018;51.258;6.806;2023-12-04T09:45:57;11.40;;;9.27;;
4353;SDS011;11018;51.258;6.806;2023-12-04T09:48:26;11.90;;;9.55;;
4353;SDS011;11018;51.258;6.806;2023-12-04T09:50:53;11.52;;;9.30;;
4353;SDS011;11018;51.258;6.806;2023-12-04T09:53:19;12.55;;;9.43;;
4353;SDS011;11018;51.258;6.806;2023-12-04T09:55:47;13.80;;;8.90;;
4353;SDS011;11018;51.258;6.806;2023-12-04T09:58:14;12.43;;;9.07;;
4353;SDS011;11018;51.258;6.806;2023-12-04T10:00:41;12.25;;;9.55;;
4353;SDS011;11018;51.258;6.806;2023-12-04T10:03:08;11.68;;;9.23;;
4353;SDS011;11018;51.258;6.806;2023-12-04T10:05:33;12.85;;;10.13;;
4353;SDS011;11018;51.258;6.806;2023-12-04T10:07:59;15.15;;;9.75;;
4353;SDS011;11018;51.258;6.806;2023-12-04T10:10:24;13.07;;;8.90;;
4353;SDS011;11018;51.258;6.806;2023-12-04T10:12:51;13.37;;;9.80;;
4353;SDS011;11018;51.258;6.806;2023-12-04T10:15:16;11.95;;;9.32;;
4353;SDS011;11018;51.258;6.806;2023-12-04T10:17:42;13.15;;;9.68;;
4353;SDS011;11018;51.258;6.806;2023-12-04T10:20:12;11.43;;;9.20;;
4353;SDS011;11018;51.258;6.806;2023-12-04T10:22:57;13.13;;;9.38;;
4353;SDS011;11018;51.258;6.806;2023-12-04T10:25:25;14.23;;;10.23;;
4353;SDS011;11018;51.258;6.806;2023-12-04T10:27:52;13.60;;;9.73;;
4353;SDS011;11018;51.258;6.806;2023-12-04T10:30:26;13.75;;;9.02;;
4353;SDS011;11018;51.258;6.806;2023-12-04T10:33:01;13.45;;;10.18;;
4353;SDS011;11018;51.258;6.806;2023-12-04T10:35:32;13.43;;;9.77;;
4353;SDS011;11018;51.258;6.806;2023-12-04T10:38:01;14.95;;;9.18;;
4353;SDS011;11018;51.258;6.806;2023-12-04T10:40:31;12.40;;;9.50;;
4353;SDS011;11018;51.258;6.806;2023-12-04T10:45:36;16.10;;;10.00;;
4353;SDS011;11018;51.258;6.806;2023-12-04T10:48:03;14.45;;;9.50;;
4353;SDS011;11018;51.258;6.806;2023-12-04T10:50:31;11.90;;;9.25;;
4353;SDS011;11018;51.258;6.806;2023-12-04T10:53:08;13.18;;;9.90;;
4353;SDS011;11018;51.258;6.806;2023-12-04T10:55:37;13.95;;;9.75;;
4353;SDS011;11018;51.258;6.806;2023-12-04T10:58:05;13.63;;;9.40;;
4353;SDS011;11018;51.258;6.806;2023-12-04T11:00:35;15.68;;;9.70;;
4353;SDS011;11018;51.258;6.806;2023-12-04T11:03:09;13.80;;;10.38;;
4353;SDS011;11018;51.258;6.806;2023-12-04T11:05:39;15.13;;;10.77;;
4353;SDS011;11018;51.258;6.806;2023-12-04T11:08:06;13.47;;;9.90;;
4353;SDS011;11018;51.258;6.806;2023-12-04T11:10:33;12.95;;;9.68;;
4353;SDS011;11018;51.258;6.806;2023-12-04T11:13:12;15.27;;;10.40;;
4353;SDS011;11018;51.258;6.806;2023-12-04T11:15:42;16.15;;;11.05;;
4353;SDS011;11018;51.258;6.806;2023-12-04T11:18:13;18.33;;;11.37;;
4353;SDS011;11018;51.258;6.806;2023-12-04T11:20:58;13.70;;;10.73;;
4353;SDS011;11018;51.258;6.806;2023-12-04T11:23:28;15.45;;;10.50;;
4353;SDS011;11018;51.258;6.806;2023-12-04T11:25:56;13.32;;;10.50;;
4353;SDS011;11018;51.258;6.806;2023-12-04T11:28:23;18.02;;;11.20;;
4353;SDS011;11018;51.258;6.806;2023-12-04T11:30:50;16.27;;;10.88;;
4353;SDS011;11018;51.258;6.806;2023-12-04T11:33:18;14.45;;;10.40;;
4353;SDS011;11018;51.258;6.806;2023-12-04T11:35:44;16.10;;;11.00;;
4353;SDS011;11018;51.258;6.806;2023-12-04T11:38:13;14.85;;;10.80;;
4353;SDS011;11018;51.258;6.806;2023-12-04T11:40:40;17.33;;;11.40;;
4353;SDS011;11018;51.258;6.806;2023-12-04T11:43:26;15.70;;;11.52;;
4353;SDS011;11018;51.258;6.806;2023-12-04T11:45:52;17.73;;;11.80;;
4353;SDS011;11018;51.258;6.806;2023-12-04T11:48:25;16.42;;;11.57;;
4353;SDS011;11018;51.258;6.806;2023-12-04T11:50:50;16.05;;;11.88;;
4353;SDS011;11018;51.258;6.806;2023-12-04T11:53:16;14.40;;;11.00;;
4353;SDS011;11018;51.258;6.806;2023-12-04T11:55:41;15.50;;;11.60;;
4353;SDS011;11018;51.258;6.806;2023-12-04T11:58:10;16.03;;;12.00;;
4353;SDS011;11018;51.258;6.806;2023-12-04T12:00:37;16.60;;;12.10;;
4353;SDS011;11018;51.258;6.806;2023-12-04T12:03:06;16.92;;;11.82;;
4353;SDS011;11018;51.258;6.806;2023-12-04T12:05:34;16.05;;;12.05;;
4353;SDS011;11018;51.258;6.806;2023-12-04T12:08:01;15.85;;;11.48;;
4353;SDS011;11018;51.258;6.806;2023-12-04T12:10:28;16.52;;;11.77;;
4353;SDS011;11018;51.258;6.806;2023-12-04T12:12:54;15.90;;;11.45;;
4353;SDS011;11018;51.258;6.806;2023-12-04T12:15:20;19.15;;;12.25;;
4353;SDS011;11018;51.258;6.806;2023-12-04T12:17:45;15.50;;;11.65;;
4353;SDS011;11018;51.258;6.806;2023-12-04T12:20:12;16.45;;;12.30;;
4353;SDS011;11018;51.258;6.806;2023-12-04T12:22:39;21.20;;;14.70;;
4353;SDS011;11018;51.258;6.806;2023-12-04T12:25:07;21.88;;;13.10;;
4353;SDS011;11018;51.258;6.806;2023-12-04T12:27:33;16.13;;;11.68;;
4353;SDS011;11018;51.258;6.806;2023-12-04T12:29:59;17.60;;;12.18;;
4353;SDS011;11018;51.258;6.806;2023-12-04T12:32:25;20.00;;;12.63;;
4353;SDS011;11018;51.258;6.806;2023-12-04T12:34:51;19.23;;;13.00;;
4353;SDS011;11018;51.258;6.806;2023-12-04T12:37:17;18.90;;;12.55;;
4353;SDS011;11018;51.258;6.806;2023-12-04T12:39:43;17.95;;;12.48;;
4353;SDS011;11018;51.258;6.806;2023-12-04T12:42:09;18.08;;;12.90;;
4353;SDS011;11018;51.258;6.806;2023-12-04T12:44:36;17.60;;;12.95;;
4353;SDS011;11018;51.258;6.806;2023-12-04T12:47:05;20.00;;;12.93;;
4353;SDS011;11018;51.258;6.806;2023-12-04T12:49:35;16.42;;;12.20;;
4353;SDS011;11018;51.258;6.806;2023-12-04T12:52:02;16.55;;;12.18;;
4353;SDS011;11018;51.258;6.806;2023-12-04T12:54:30;16.20;;;12.10;;
4353;SDS011;11018;51.258;6.806;2023-12-04T12:56:58;17.65;;;12.85;;
4353;SDS011;11018;51.258;6.806;2023-12-04T12:59:24;17.35;;;11.52;;
4353;SDS011;11018;51.258;6.806;2023-12-04T13:01:50;15.68;;;11.43;;
4353;SDS011;11018;51.258;6.806;2023-12-04T13:04:17;15.40;;;11.33;;
4353;SDS011;11018;51.258;6.806;2023-12-04T13:06:43;16.55;;;11.68;;
4353;SDS011;11018;51.258;6.806;2023-12-04T13:09:09;16.87;;;11.90;;
4353;SDS011;11018;51.258;6.806;2023-12-04T13:11:42;16.38;;;11.02;;
4353;SDS011;11018;51.258;6.806;2023-12-04T13:14:11;14.45;;;11.10;;
4353;SDS011;11018;51.258;6.806;2023-12-04T13:16:38;16.35;;;11.40;;
4353;SDS011;11018;51.258;6.806;2023-12-04T13:19:04;13.93;;;10.82;;
4353;SDS011;11018;51.258;6.806;2023-12-04T13:21:30;14.82;;;11.23;;
4353;SDS011;11018;51.258;6.806;2023-12-04T13:23:56;15.60;;;11.30;;
4353;SDS011;11018;51.258;6.806;2023-12-04T13:26:22;18.50;;;11.80;;
4353;SDS011;11018;51.258;6.806;2023-12-04T13:28:47;16.38;;;10.90;;
4353;SDS011;11018;51.258;6.806;2023-12-04T13:31:13;15.43;;;11.18;;
4353;SDS011;11018;51.258;6.806;2023-12-04T13:33:39;13.88;;;10.70;;
4353;SDS011;11018;51.258;6.806;2023-12-04T13:36:05;14.77;;;10.63;;
4353;SDS011;11018;51.258;6.806;2023-12-04T13:38:30;15.73;;;10.68;;
4353;SDS011;11018;51.258;6.806;2023-12-04T13:40:56;12.13;;;9.80;;
4353;SDS011;11018;51.258;6.806;2023-12-04T13:43:43;16.25;;;11.32;;
4353;SDS011;11018;51.258;6.806;2023-12-04T13:46:15;15.32;;;10.73;;
4353;SDS011;11018;51.258;6.806;2023-12-04T13:48:40;14.60;;;10.18;;
4353;SDS011;11018;51.258;6.806;2023-12-04T13:51:08;14.60;;;10.63;;
4353;SDS011;11018;51.258;6.806;2023-12-04T13:53:34;14.60;;;10.02;;
4353;SDS011;11018;51.258;6.806;2023-12-04T13:56:04;15.85;;;10.73;;
4353;SDS011;11018;51.258;6.806;2023-12-04T13:58:52;12.43;;;9.82;;
4353;SDS011;11018;51.258;6.806;2023-12-04T14:01:22;12.80;;;9.85;;
4353;SDS011;11018;51.258;6.806;2023-12-04T14:03:49;14.20;;;9.90;;
4353;SDS011;11018;51.258;6.806;2023-12-04T14:06:16;12.57;;;8.85;;
4353;SDS011;11018;51.258;6.806;2023-12-04T14:08:41;12.63;;;9.63;;
4353;SDS011;11018;51.258;6.806;2023-12-04T14:11:07;14.03;;;9.97;;
4353;SDS011;11018;51.258;6.806;2023-12-04T14:13:34;11.40;;;9.10;;
4353;SDS011;11018;51.258;6.806;2023-12-04T14:16:00;11.60;;;8.80;;
4353;SDS011;11018;51.258;6.806;2023-12-04T14:18:27;11.13;;;8.70;;
4353;SDS011;11018;51.258;6.806;2023-12-04T14:20:55;10.93;;;8.98;;
4353;SDS011;11018;51.258;6.806;2023-12-04T14:23:21;11.57;;;9.10;;
4353;SDS011;11018;51.258;6.806;2023-12-04T14:25:46;10.20;;;8.83;;
4353;SDS011;11018;51.258;6.806;2023-12-04T14:28:12;10.65;;;8.45;;
4353;SDS011;11018;51.258;6.806;2023-12-04T14:30:38;9.38;;;8.02;;
4353;SDS011;11018;51.258;6.806;2023-12-04T14:33:03;11.57;;;8.65;;
4353;SDS011;11018;51.258;6.806;2023-12-04T14:35:29;10.93;;;8.73;;
4353;SDS011;11018;51.258;6.806;2023-12-04T14:37:55;10.50;;;7.97;;